Minneapolis, Kansas
Current Conditions -  °F | °C
As of 5:53 AM on Monday 24 Nov 2014 (Local Time) from KSLN Reporting Station
Broken Clouds Broken Clouds  
Wind Chill: 26°   Ceiling: 6500
Heat Index: 34°   Visibility: 10mi
Dew Point: 22°   Wind: 10mph
Humidity: 61%   Direction: 260°W
Pressure: 29.74"   Gusts: NA
Location:  39.12°N, 97.71°W
Report Text: KSLN 241153Z AUTO 26009KT 10SM BKN065 01/M06 A2974 RMK AO2 SLP076 70013 T00111056 10044 20006 53012
Loading
Personal Weather Stations






























Interactive Weather Map New forecast layout! Learn more

10-Day Weather Forecast

Advertisements
Track Severe Weather on mobile